createdAt,value
2023-02-25T00:01:36.029Z,18.90
2023-02-25T00:04:02.790Z,18.90
2023-02-25T00:06:29.574Z,18.90
2023-02-25T00:08:56.772Z,18.90
2023-02-25T00:11:25.338Z,18.90
2023-02-25T00:13:52.362Z,18.90
2023-02-25T00:16:21.082Z,18.90
2023-02-25T00:18:48.870Z,18.90
2023-02-25T00:21:17.193Z,18.90
2023-02-25T00:23:48.435Z,18.90
2023-02-25T00:26:17.125Z,18.80
2023-02-25T00:28:45.130Z,18.90
2023-02-25T00:31:17.642Z,18.80
2023-02-25T00:33:45.162Z,18.80
2023-02-25T00:36:26.100Z,18.80
2023-02-25T00:38:55.957Z,18.80
2023-02-25T00:41:27.058Z,18.80
2023-02-25T00:43:56.649Z,18.80
2023-02-25T00:46:23.907Z,18.80
2023-02-25T00:48:51.093Z,18.80
2023-02-25T00:51:29.693Z,18.80
2023-02-25T00:53:57.015Z,18.80
2023-02-25T00:56:25.222Z,18.80
2023-02-25T00:58:52.908Z,18.80
2023-02-25T01:01:21.658Z,18.80
2023-02-25T01:03:49.822Z,18.80
2023-02-25T01:06:16.878Z,18.80
2023-02-25T01:08:43.881Z,18.80
2023-02-25T01:11:13.847Z,18.80
2023-02-25T01:13:41.040Z,18.80
2023-02-25T01:16:15.871Z,18.80
2023-02-25T01:18:43.597Z,18.70
2023-02-25T01:21:32.222Z,18.70
2023-02-25T01:24:01.690Z,18.80
2023-02-25T01:26:30.977Z,18.70
2023-02-25T01:28:58.351Z,18.70
2023-02-25T01:31:29.304Z,18.70
2023-02-25T01:34:02.020Z,18.70
2023-02-25T01:36:31.167Z,18.70
2023-02-25T01:38:59.074Z,18.70
2023-02-25T01:41:27.317Z,18.70
2023-02-25T01:44:33.847Z,18.70
2023-02-25T01:47:01.522Z,18.70
2023-02-25T01:49:40.345Z,18.70
2023-02-25T01:52:08.939Z,18.70
2023-02-25T01:54:39.666Z,18.60
2023-02-25T01:57:10.373Z,18.60
2023-02-25T01:59:38.876Z,18.70
2023-02-25T02:02:07.750Z,18.60
2023-02-25T02:04:37.760Z,18.60
2023-02-25T02:07:04.469Z,18.60
2023-02-25T02:09:32.055Z,18.60
2023-02-25T02:12:01.157Z,18.60
2023-02-25T02:14:33.042Z,18.60
2023-02-25T02:17:38.654Z,18.60
2023-02-25T02:20:14.163Z,18.50
2023-02-25T02:22:55.305Z,18.50
2023-02-25T02:26:01.006Z,18.50
2023-02-25T02:28:51.941Z,18.50
2023-02-25T02:31:40.277Z,18.50
2023-02-25T02:34:29.249Z,18.50
2023-02-25T02:37:32.784Z,18.50
2023-02-25T02:40:49.993Z,18.50
2023-02-25T02:43:35.428Z,18.50
2023-02-25T02:46:23.516Z,18.50
2023-02-25T02:49:30.224Z,18.50
2023-02-25T02:52:01.726Z,18.50
2023-02-25T02:54:34.414Z,18.50
2023-02-25T02:57:03.069Z,18.50
2023-02-25T02:59:36.469Z,18.50
2023-02-25T03:02:09.470Z,18.50
2023-02-25T03:04:38.834Z,18.50
2023-02-25T03:07:10.031Z,18.50
2023-02-25T03:09:53.154Z,18.50
2023-02-25T03:12:20.134Z,18.50
2023-02-25T03:14:47.001Z,18.50
2023-02-25T03:17:31.423Z,18.50
2023-02-25T03:20:10.391Z,18.50
2023-02-25T03:22:41.053Z,18.50
2023-02-25T03:25:26.769Z,18.50
2023-02-25T03:28:11.347Z,18.50
2023-02-25T03:30:46.217Z,18.50
2023-02-25T03:33:24.442Z,18.40
2023-02-25T03:35:53.687Z,18.40
2023-02-25T03:38:25.298Z,18.40
2023-02-25T03:40:52.292Z,18.40
2023-02-25T03:43:29.862Z,18.40
2023-02-25T03:45:57.481Z,18.40
2023-02-25T03:48:25.316Z,18.40
2023-02-25T03:51:00.736Z,18.40
2023-02-25T03:53:29.276Z,18.40
2023-02-25T03:55:57.751Z,18.40
2023-02-25T03:58:24.961Z,18.40
2023-02-25T04:00:57.766Z,18.40
2023-02-25T04:03:24.558Z,18.40
2023-02-25T04:05:51.290Z,18.40
2023-02-25T04:08:19.420Z,18.40
2023-02-25T04:10:47.665Z,18.40
2023-02-25T04:13:16.105Z,18.40
2023-02-25T04:15:44.061Z,18.40
2023-02-25T04:18:10.837Z,18.40
2023-02-25T04:20:37.765Z,18.40
2023-02-25T04:23:04.647Z,18.40
2023-02-25T04:25:31.405Z,18.30
2023-02-25T04:27:58.172Z,18.30
2023-02-25T04:30:24.885Z,18.40
2023-02-25T04:32:51.978Z,18.40
2023-02-25T04:35:18.686Z,18.40
2023-02-25T04:37:45.378Z,18.30
2023-02-25T04:40:17.571Z,18.30
2023-02-25T04:42:44.442Z,18.30
2023-02-25T04:45:13.113Z,18.30
2023-02-25T04:47:40.113Z,18.30
2023-02-25T04:50:08.340Z,18.30
2023-02-25T04:52:35.164Z,18.30
2023-02-25T04:55:02.020Z,18.30
2023-02-25T04:57:28.820Z,18.30
2023-02-25T04:59:55.633Z,18.30
2023-02-25T05:02:22.403Z,18.30
2023-02-25T05:04:49.160Z,18.30
2023-02-25T05:07:15.947Z,18.30
2023-02-25T05:09:42.614Z,18.30
2023-02-25T05:12:09.408Z,18.30
2023-02-25T05:14:37.632Z,18.30
2023-02-25T05:17:04.768Z,18.30
2023-02-25T05:19:31.642Z,18.30
2023-02-25T05:21:58.447Z,18.30
2023-02-25T05:24:25.477Z,18.30
2023-02-25T05:26:52.186Z,18.30
2023-02-25T05:29:19.010Z,18.30
2023-02-25T05:31:46.024Z,18.30
2023-02-25T05:34:13.033Z,18.30
2023-02-25T05:36:40.566Z,18.30
2023-02-25T05:39:07.364Z,18.20
2023-02-25T05:41:34.120Z,18.30
2023-02-25T05:44:00.880Z,18.30
2023-02-25T05:46:28.092Z,18.20
2023-02-25T05:48:55.167Z,18.20
2023-02-25T05:51:23.511Z,18.20
2023-02-25T05:53:51.919Z,18.20
2023-02-25T05:56:23.173Z,18.20
2023-02-25T05:58:50.007Z,18.20
2023-02-25T06:01:23.447Z,18.20
2023-02-25T06:03:58.584Z,18.20
2023-02-25T06:06:28.156Z,18.20
2023-02-25T06:08:54.845Z,18.20
2023-02-25T06:11:26.892Z,18.20
2023-02-25T06:13:55.222Z,18.20
2023-02-25T06:16:25.569Z,18.20
2023-02-25T06:18:52.669Z,18.20
2023-02-25T06:21:19.969Z,18.20
2023-02-25T06:23:50.064Z,18.20
2023-02-25T06:26:18.000Z,18.20
2023-02-25T06:28:45.080Z,18.20
2023-02-25T06:31:17.187Z,18.20
2023-02-25T06:33:46.590Z,18.20
2023-02-25T06:36:13.786Z,18.20
2023-02-25T06:38:40.673Z,18.20
2023-02-25T06:41:18.602Z,18.20
2023-02-25T06:43:46.809Z,18.20
2023-02-25T06:46:14.853Z,18.20
2023-02-25T06:48:41.747Z,18.20
2023-02-25T06:51:09.703Z,18.20
2023-02-25T06:53:41.470Z,18.20
2023-02-25T06:56:08.348Z,18.20
2023-02-25T06:58:35.547Z,18.20
2023-02-25T07:01:09.549Z,18.20
2023-02-25T07:03:36.859Z,18.20
2023-02-25T07:06:04.151Z,18.20
2023-02-25T07:08:31.148Z,18.20
2023-02-25T07:11:30.190Z,18.20
2023-02-25T07:13:57.654Z,18.20
2023-02-25T07:16:24.875Z,18.20
2023-02-25T07:18:51.898Z,18.20
2023-02-25T07:21:18.981Z,18.20
2023-02-25T07:23:46.437Z,18.20
2023-02-25T07:26:14.548Z,18.20
2023-02-25T07:28:42.187Z,18.20
2023-02-25T07:31:17.835Z,18.20
2023-02-25T07:33:45.117Z,18.20
2023-02-25T07:36:12.751Z,18.20
2023-02-25T07:38:39.988Z,18.20
2023-02-25T07:41:08.719Z,18.30
2023-02-25T07:43:35.962Z,18.30
2023-02-25T07:46:03.154Z,18.30
2023-02-25T07:48:29.953Z,18.30
2023-02-25T07:51:03.778Z,18.30
2023-02-25T07:53:30.437Z,18.30
2023-02-25T07:55:57.100Z,18.20
2023-02-25T07:58:23.795Z,18.20
2023-02-25T08:00:50.482Z,18.20
2023-02-25T08:03:17.254Z,18.20
2023-02-25T08:05:44.035Z,18.20
2023-02-25T08:08:11.054Z,18.20
2023-02-25T08:10:37.705Z,18.20
2023-02-25T08:13:04.490Z,18.20
2023-02-25T08:15:32.286Z,18.20
2023-02-25T08:17:59.164Z,18.20
2023-02-25T08:20:25.993Z,18.20
2023-02-25T08:22:52.763Z,18.20
2023-02-25T08:25:19.472Z,18.10
2023-02-25T08:27:46.419Z,18.10
2023-02-25T08:30:13.362Z,18.10
2023-02-25T08:32:41.945Z,18.30
2023-02-25T08:35:09.240Z,18.30
2023-02-25T08:37:35.982Z,18.50
2023-02-25T08:40:07.568Z,18.90
2023-02-25T08:42:34.289Z,19.40
2023-02-25T08:45:00.958Z,19.50
2023-02-25T08:47:27.789Z,19.40
2023-02-25T08:49:54.481Z,19.10
2023-02-25T08:52:21.249Z,18.80
2023-02-25T08:54:48.083Z,18.60
2023-02-25T08:57:14.906Z,18.50
2023-02-25T08:59:41.753Z,18.50
2023-02-25T09:02:15.234Z,18.60
2023-02-25T09:04:41.926Z,18.80
2023-02-25T09:07:08.652Z,18.70
2023-02-25T09:09:35.388Z,18.60
2023-02-25T09:12:05.160Z,18.60
2023-02-25T09:14:32.092Z,18.50
2023-02-25T09:16:59.063Z,18.40
2023-02-25T09:19:25.778Z,18.40
2023-02-25T09:21:52.608Z,18.40
2023-02-25T09:24:19.367Z,18.30
2023-02-25T09:26:47.024Z,18.30
2023-02-25T09:29:13.876Z,18.30
2023-02-25T09:31:40.697Z,18.30
2023-02-25T09:34:09.983Z,18.30
2023-02-25T09:36:37.225Z,18.30
2023-02-25T09:39:07.398Z,18.40
2023-02-25T09:41:55.950Z,18.40
2023-02-25T09:44:36.081Z,19.40
2023-02-25T09:47:10.247Z,23.40
2023-02-25T09:49:38.982Z,25.40
2023-02-25T09:52:28.882Z,25.20
2023-02-25T09:55:08.258Z,24.10
2023-02-25T09:57:38.934Z,22.20
2023-02-25T10:00:17.096Z,20.90
2023-02-25T10:02:54.413Z,20.00
2023-02-25T10:05:52.109Z,19.50
2023-02-25T10:08:34.606Z,19.20
2023-02-25T10:11:12.719Z,19.00
2023-02-25T10:13:59.700Z,18.90
2023-02-25T10:16:45.844Z,18.80
2023-02-25T10:19:24.108Z,18.90
2023-02-25T10:22:18.879Z,19.00
2023-02-25T10:24:57.187Z,19.00
2023-02-25T10:27:31.170Z,19.10
2023-02-25T10:30:23.052Z,19.20
2023-02-25T10:32:50.661Z,19.20
2023-02-25T10:35:29.367Z,19.30
2023-02-25T10:37:56.195Z,19.40
2023-02-25T10:40:25.700Z,19.40
2023-02-25T10:42:55.327Z,19.40
2023-02-25T10:45:26.578Z,19.40
2023-02-25T10:48:13.915Z,19.50
2023-02-25T10:50:46.290Z,19.50
2023-02-25T10:53:18.073Z,19.60
2023-02-25T10:55:46.909Z,19.70
2023-02-25T10:58:24.890Z,19.70
2023-02-25T11:01:04.336Z,19.70
2023-02-25T11:03:34.094Z,19.70
2023-02-25T11:06:24.871Z,19.60
2023-02-25T11:08:54.787Z,19.60
2023-02-25T11:11:24.558Z,19.70
2023-02-25T11:14:05.964Z,19.50
2023-02-25T11:16:36.494Z,19.40
2023-02-25T11:19:26.603Z,19.40
2023-02-25T11:21:53.933Z,19.40
2023-02-25T11:24:33.382Z,19.30
2023-02-25T11:27:03.888Z,19.30
2023-02-25T11:29:38.244Z,19.40
2023-02-25T11:32:20.258Z,19.40
2023-02-25T11:34:57.078Z,19.50
2023-02-25T11:37:35.855Z,19.50
2023-02-25T11:40:19.020Z,19.50
2023-02-25T11:43:19.975Z,19.50
2023-02-25T11:46:17.323Z,19.50
2023-02-25T11:48:58.546Z,19.60
2023-02-25T11:51:28.467Z,19.60
2023-02-25T11:54:23.404Z,19.70
2023-02-25T11:57:04.187Z,19.70
2023-02-25T11:59:44.398Z,19.70
2023-02-25T12:02:27.406Z,19.70
2023-02-25T12:05:06.138Z,19.80
2023-02-25T12:08:05.124Z,19.80
2023-02-25T12:10:53.584Z,19.70
2023-02-25T12:13:35.525Z,19.70
2023-02-25T12:16:21.503Z,19.80
2023-02-25T12:19:31.474Z,19.80
2023-02-25T12:22:00.898Z,19.70
2023-02-25T12:24:43.537Z,19.80
2023-02-25T12:27:25.285Z,19.90
2023-02-25T12:29:51.961Z,19.90
2023-02-25T12:32:33.759Z,19.80
2023-02-25T12:35:38.586Z,19.70
2023-02-25T12:38:34.027Z,19.90
2023-02-25T12:41:42.270Z,19.90
2023-02-25T12:44:36.649Z,20.00
2023-02-25T12:47:25.256Z,19.70
2023-02-25T12:50:33.877Z,19.70
2023-02-25T12:53:26.699Z,19.50
2023-02-25T12:56:27.910Z,19.50
2023-02-25T12:59:32.744Z,19.50
2023-02-25T13:02:24.837Z,19.50
2023-02-25T13:04:54.912Z,19.40
2023-02-25T13:07:33.698Z,19.50
2023-02-25T13:10:09.270Z,19.50
2023-02-25T13:12:57.835Z,19.60
2023-02-25T13:16:04.263Z,19.70
2023-02-25T13:18:31.005Z,19.70
2023-02-25T13:21:22.788Z,19.70
2023-02-25T13:24:03.994Z,19.70
2023-02-25T13:26:44.411Z,19.80
2023-02-25T13:29:52.621Z,19.80
2023-02-25T13:32:37.108Z,19.90
2023-02-25T13:35:29.021Z,19.80
2023-02-25T13:38:20.340Z,19.80
2023-02-25T13:41:26.120Z,19.80
2023-02-25T13:44:17.675Z,19.80
2023-02-25T13:47:17.944Z,19.80
2023-02-25T13:50:14.664Z,19.80
2023-02-25T13:53:08.458Z,19.70
2023-02-25T13:55:35.069Z,19.70
2023-02-25T13:58:26.225Z,19.70
2023-02-25T14:00:58.974Z,19.70
2023-02-25T14:03:59.622Z,19.70
2023-02-25T14:06:53.656Z,19.80
2023-02-25T14:09:39.456Z,19.80
2023-02-25T14:12:27.678Z,19.80
2023-02-25T14:15:16.909Z,19.70
2023-02-25T14:18:10.775Z,19.60
2023-02-25T14:20:40.739Z,19.60
2023-02-25T14:23:43.113Z,19.60
2023-02-25T14:26:27.974Z,19.50
2023-02-25T14:29:15.849Z,19.50
2023-02-25T14:32:04.233Z,19.60
2023-02-25T14:35:02.648Z,19.60
2023-02-25T14:38:06.129Z,19.60
2023-02-25T14:41:01.795Z,19.70
2023-02-25T14:43:32.938Z,19.70
2023-02-25T14:46:20.922Z,19.70
2023-02-25T14:49:18.288Z,19.70
2023-02-25T14:52:05.402Z,19.70
2023-02-25T14:54:37.879Z,19.70
2023-02-25T14:57:16.542Z,19.70
2023-02-25T15:00:09.648Z,19.70
2023-02-25T15:02:39.915Z,19.70
2023-02-25T15:05:16.576Z,19.70
2023-02-25T15:08:06.150Z,19.60
2023-02-25T15:10:57.608Z,19.60
2023-02-25T15:13:50.158Z,19.70
2023-02-25T15:16:44.796Z,19.60
2023-02-25T15:19:20.327Z,19.60
2023-02-25T15:21:49.221Z,19.60
2023-02-25T15:24:28.245Z,19.70
2023-02-25T15:26:57.584Z,19.70
2023-02-25T15:29:33.394Z,19.70
2023-02-25T15:32:32.656Z,19.70
2023-02-25T15:34:59.901Z,19.70
2023-02-25T15:37:28.551Z,19.70
2023-02-25T15:39:59.052Z,19.70
2023-02-25T15:42:49.530Z,19.70
2023-02-25T15:45:28.391Z,19.70
2023-02-25T15:48:07.065Z,19.70
2023-02-25T15:50:42.786Z,19.70
2023-02-25T15:53:10.447Z,19.70
2023-02-25T15:55:42.158Z,19.70
2023-02-25T15:58:24.144Z,19.70
2023-02-25T16:00:52.942Z,19.70
2023-02-25T16:03:25.877Z,19.70
2023-02-25T16:05:54.467Z,19.60
2023-02-25T16:08:27.639Z,19.50
2023-02-25T16:10:56.385Z,19.50
2023-02-25T16:13:34.737Z,19.50
2023-02-25T16:16:03.898Z,19.50
2023-02-25T16:18:42.680Z,19.50
2023-02-25T16:21:21.905Z,19.50
2023-02-25T16:23:49.113Z,19.50
2023-02-25T16:26:29.055Z,19.50
2023-02-25T16:29:01.995Z,19.50
2023-02-25T16:31:42.009Z,19.50
2023-02-25T16:34:38.170Z,19.50
2023-02-25T16:37:31.999Z,19.50
2023-02-25T16:39:59.177Z,19.40
2023-02-25T16:42:26.626Z,19.40
2023-02-25T16:45:02.077Z,19.40
2023-02-25T16:47:33.295Z,19.30
2023-02-25T16:50:04.478Z,19.30
2023-02-25T16:52:34.740Z,19.30
2023-02-25T16:55:05.696Z,19.20
2023-02-25T16:57:36.402Z,19.20
2023-02-25T17:00:21.336Z,19.20
2023-02-25T17:02:50.584Z,19.20
2023-02-25T17:05:29.222Z,19.10
2023-02-25T17:08:13.960Z,19.20
2023-02-25T17:10:50.735Z,19.10
2023-02-25T17:13:26.318Z,19.10
2023-02-25T17:15:53.727Z,19.20
2023-02-25T17:18:41.708Z,19.10
2023-02-25T17:21:29.941Z,19.10
2023-02-25T17:23:58.656Z,19.10
2023-02-25T17:26:25.850Z,19.10
2023-02-25T17:28:56.239Z,19.10
2023-02-25T17:31:27.240Z,19.10
2023-02-25T17:34:01.103Z,19.10
2023-02-25T17:36:35.390Z,19.10
2023-02-25T17:39:06.098Z,19.10
2023-02-25T17:41:34.132Z,19.00
2023-02-25T17:44:00.970Z,19.00
2023-02-25T17:46:38.298Z,19.00
2023-02-25T17:49:28.403Z,19.00
2023-02-25T17:51:58.927Z,19.00
2023-02-25T17:54:28.908Z,19.00
2023-02-25T17:56:58.373Z,19.00
2023-02-25T17:59:28.294Z,19.00
2023-02-25T18:02:00.804Z,19.00
2023-02-25T18:04:37.162Z,19.00
2023-02-25T18:07:23.660Z,19.00
2023-02-25T18:09:51.192Z,19.00
2023-02-25T18:12:26.841Z,19.00
2023-02-25T18:15:00.451Z,18.90
2023-02-25T18:17:49.004Z,18.90
2023-02-25T18:20:35.328Z,18.90
2023-02-25T18:23:06.466Z,18.90
2023-02-25T18:25:39.513Z,18.90
2023-02-25T18:28:13.712Z,18.90
2023-02-25T18:30:40.572Z,18.90
2023-02-25T18:33:11.367Z,18.90
2023-02-25T18:35:40.867Z,18.90
2023-02-25T18:38:12.804Z,18.80
2023-02-25T18:40:40.603Z,18.80
2023-02-25T18:43:07.644Z,18.80
2023-02-25T18:45:34.930Z,18.80
2023-02-25T18:48:01.971Z,18.80
2023-02-25T18:50:30.665Z,18.80
2023-02-25T18:52:57.899Z,18.80
2023-02-25T18:55:26.913Z,18.80
2023-02-25T18:57:54.055Z,18.80
2023-02-25T19:00:23.214Z,18.80
2023-02-25T19:03:01.892Z,18.80
2023-02-25T19:05:29.742Z,18.80
2023-02-25T19:07:57.183Z,18.70
2023-02-25T19:10:27.271Z,18.70
2023-02-25T19:13:02.132Z,18.70
2023-02-25T19:15:28.903Z,18.70
2023-02-25T19:17:56.485Z,18.70
2023-02-25T19:20:24.872Z,18.70
2023-02-25T19:22:54.041Z,18.70
2023-02-25T19:25:26.250Z,18.70
2023-02-25T19:27:55.007Z,18.70
2023-02-25T19:30:29.530Z,18.70
2023-02-25T19:32:59.549Z,18.70
2023-02-25T19:35:27.583Z,18.70
2023-02-25T19:37:54.420Z,18.70
2023-02-25T19:40:21.516Z,18.70
2023-02-25T19:42:48.947Z,18.60
2023-02-25T19:45:18.947Z,18.70
2023-02-25T19:47:47.179Z,18.70
2023-02-25T19:50:15.424Z,18.70
2023-02-25T19:52:43.333Z,18.60
2023-02-25T19:55:11.541Z,18.60
2023-02-25T19:57:39.134Z,18.60
2023-02-25T20:00:08.979Z,18.60
2023-02-25T20:02:35.733Z,18.60
2023-02-25T20:05:02.479Z,18.60
2023-02-25T20:07:29.153Z,18.60
2023-02-25T20:09:55.852Z,18.60
2023-02-25T20:12:22.564Z,18.60
2023-02-25T20:14:49.337Z,18.60
2023-02-25T20:17:16.026Z,18.60
2023-02-25T20:19:42.743Z,18.60
2023-02-25T20:22:09.799Z,18.60
2023-02-25T20:24:36.625Z,18.60
2023-02-25T20:27:04.216Z,18.60
2023-02-25T20:29:31.075Z,18.60
2023-02-25T20:31:57.941Z,18.60
2023-02-25T20:34:28.201Z,18.60
2023-02-25T20:36:59.753Z,18.60
2023-02-25T20:39:35.312Z,18.60
2023-02-25T20:42:03.602Z,18.60
2023-02-25T20:44:31.268Z,18.60
2023-02-25T20:46:58.719Z,18.50
2023-02-25T20:49:25.607Z,18.50
2023-02-25T20:51:52.590Z,18.50
2023-02-25T20:54:19.957Z,18.50
2023-02-25T20:56:47.755Z,18.50
2023-02-25T20:59:15.676Z,18.50
2023-02-25T21:01:42.624Z,18.50
2023-02-25T21:04:10.003Z,18.50
2023-02-25T21:06:38.110Z,18.50
2023-02-25T21:09:06.509Z,18.50
2023-02-25T21:11:33.542Z,18.50
2023-02-25T21:14:00.267Z,18.50
2023-02-25T21:16:27.410Z,18.50
2023-02-25T21:18:57.735Z,18.50
2023-02-25T21:21:27.120Z,18.50
2023-02-25T21:23:54.674Z,18.50
2023-02-25T21:26:22.110Z,18.50
2023-02-25T21:28:49.342Z,18.50
2023-02-25T21:31:16.812Z,18.50
2023-02-25T21:33:44.559Z,18.50
2023-02-25T21:36:11.648Z,18.50
2023-02-25T21:38:39.631Z,18.50
2023-02-25T21:41:12.562Z,18.40
2023-02-25T21:43:40.194Z,18.50
2023-02-25T21:46:11.473Z,18.40
2023-02-25T21:48:39.909Z,18.40
2023-02-25T21:51:07.672Z,18.40
2023-02-25T21:53:34.386Z,18.40
2023-02-25T21:56:13.848Z,18.40
2023-02-25T21:58:40.909Z,18.40
2023-02-25T22:01:29.564Z,18.40
2023-02-25T22:03:56.547Z,18.40
2023-02-25T22:06:24.549Z,18.40
2023-02-25T22:08:52.690Z,18.40
2023-02-25T22:11:26.081Z,18.40
2023-02-25T22:13:53.100Z,18.40
2023-02-25T22:16:21.286Z,18.40
2023-02-25T22:18:48.369Z,18.40
2023-02-25T22:21:18.991Z,18.30
2023-02-25T22:23:48.272Z,18.30
2023-02-25T22:26:17.949Z,18.30
2023-02-25T22:28:45.679Z,18.30
2023-02-25T22:31:29.015Z,18.30
2023-02-25T22:33:56.909Z,18.30
2023-02-25T22:36:24.174Z,18.30
2023-02-25T22:38:51.113Z,18.30
2023-02-25T22:41:30.533Z,18.30
2023-02-25T22:43:58.647Z,18.30
2023-02-25T22:46:29.621Z,18.30
2023-02-25T22:48:57.397Z,18.30
2023-02-25T22:51:33.694Z,18.30
2023-02-25T22:54:00.623Z,18.30
2023-02-25T22:56:28.351Z,18.30
2023-02-25T22:58:55.119Z,18.30
2023-02-25T23:01:24.239Z,18.30
2023-02-25T23:03:52.000Z,18.30
2023-02-25T23:06:20.750Z,18.30
2023-02-25T23:08:48.487Z,18.30
2023-02-25T23:11:24.472Z,18.30
2023-02-25T23:13:54.379Z,18.30
2023-02-25T23:16:22.758Z,18.30
2023-02-25T23:18:51.140Z,18.30
2023-02-25T23:21:19.855Z,18.30
2023-02-25T23:23:49.881Z,18.30
2023-02-25T23:26:18.746Z,18.30
2023-02-25T23:28:46.052Z,18.30
2023-02-25T23:31:21.632Z,18.30
2023-02-25T23:33:48.640Z,18.30
2023-02-25T23:36:15.765Z,18.30
2023-02-25T23:38:42.442Z,18.30
2023-02-25T23:41:09.503Z,18.30
2023-02-25T23:43:36.258Z,18.30
2023-02-25T23:46:06.687Z,18.30
2023-02-25T23:48:33.441Z,18.30
2023-02-25T23:51:05.841Z,18.30
2023-02-25T23:53:33.102Z,18.30
2023-02-25T23:56:12.188Z,18.30
2023-02-25T23:58:40.075Z,18.30
